sensor_id;sensor_type;location;lat;lon;timestamp;temperature;humidity
54576;DHT22;40472;53.486;14.542;2022-12-08T00:00:54;-1.10;99.90
54576;DHT22;40472;53.486;14.542;2022-12-08T00:03:20;-1.10;99.90
54576;DHT22;40472;53.486;14.542;2022-12-08T00:05:47;-1.20;99.90
54576;DHT22;40472;53.486;14.542;2022-12-08T00:08:32;-1.20;99.90
54576;DHT22;40472;53.486;14.542;2022-12-08T00:11:18;-1.20;99.90
54576;DHT22;40472;53.486;14.542;2022-12-08T00:13:44;-1.20;99.90
54576;DHT22;40472;53.486;14.542;2022-12-08T00:16:10;-1.30;99.90
54576;DHT22;40472;53.486;14.542;2022-12-08T00:18:38;-1.30;99.90
54576;DHT22;40472;53.486;14.542;2022-12-08T00:21:04;-1.40;99.90
54576;DHT22;40472;53.486;14.542;2022-12-08T00:23:30;-1.40;99.90
54576;DHT22;40472;53.486;14.542;2022-12-08T00:26:02;-1.40;99.90
54576;DHT22;40472;53.486;14.542;2022-12-08T00:28:32;-1.40;99.90
54576;DHT22;40472;53.486;14.542;2022-12-08T00:31:06;-1.40;99.90
54576;DHT22;40472;53.486;14.542;2022-12-08T00:33:33;-1.50;99.90
54576;DHT22;40472;53.486;14.542;2022-12-08T00:36:07;-1.50;99.90
54576;DHT22;40472;53.486;14.542;2022-12-08T00:38:33;-1.50;99.90
54576;DHT22;40472;53.486;14.542;2022-12-08T00:40:59;-1.50;99.90
54576;DHT22;40472;53.486;14.542;2022-12-08T00:43:25;-1.50;99.90
54576;DHT22;40472;53.486;14.542;2022-12-08T00:45:51;-1.40;99.90
54576;DHT22;40472;53.486;14.542;2022-12-08T00:48:17;-1.40;99.90
54576;DHT22;40472;53.486;14.542;2022-12-08T00:50:43;-1.50;99.90
54576;DHT22;40472;53.486;14.542;2022-12-08T00:53:08;-1.50;99.90
54576;DHT22;40472;53.486;14.542;2022-12-08T00:55:34;-1.50;99.90
54576;DHT22;40472;53.486;14.542;2022-12-08T00:58:00;-1.50;99.90
54576;DHT22;40472;53.486;14.542;2022-12-08T01:00:28;-1.50;99.90
54576;DHT22;40472;53.486;14.542;2022-12-08T01:02:53;-1.50;99.90
54576;DHT22;40472;53.486;14.542;2022-12-08T01:07:59;-1.60;99.90
54576;DHT22;40472;53.486;14.542;2022-12-08T01:10:25;-1.60;99.90
54576;DHT22;40472;53.486;14.542;2022-12-08T01:12:51;-1.60;99.90
54576;DHT22;40472;53.486;14.542;2022-12-08T01:15:17;-1.60;99.90
54576;DHT22;40472;53.486;14.542;2022-12-08T01:17:42;-1.70;99.90
54576;DHT22;40472;53.486;14.542;2022-12-08T01:20:08;-1.70;99.90
54576;DHT22;40472;53.486;14.542;2022-12-08T01:22:37;-1.70;99.90
54576;DHT22;40472;53.486;14.542;2022-12-08T01:25:02;-1.70;99.90
54576;DHT22;40472;53.486;14.542;2022-12-08T01:27:30;-1.70;99.90
54576;DHT22;40472;53.486;14.542;2022-12-08T01:29:56;-1.70;99.90
54576;DHT22;40472;53.486;14.542;2022-12-08T01:32:22;-1.80;99.90
54576;DHT22;40472;53.486;14.542;2022-12-08T01:34:48;-1.80;99.90
54576;DHT22;40472;53.486;14.542;2022-12-08T01:37:13;-1.80;99.90
54576;DHT22;40472;53.486;14.542;2022-12-08T01:39:39;-1.90;99.90
54576;DHT22;40472;53.486;14.542;2022-12-08T01:42:12;-1.90;99.90
54576;DHT22;40472;53.486;14.542;2022-12-08T01:47:05;-2.00;99.90
54576;DHT22;40472;53.486;14.542;2022-12-08T01:49:33;-2.00;99.90
54576;DHT22;40472;53.486;14.542;2022-12-08T01:52:12;-2.00;99.90
54576;DHT22;40472;53.486;14.542;2022-12-08T01:55:05;-2.00;99.90
54576;DHT22;40472;53.486;14.542;2022-12-08T01:57:38;-2.00;99.90
54576;DHT22;40472;53.486;14.542;2022-12-08T02:00:15;-1.90;99.90
54576;DHT22;40472;53.486;14.542;2022-12-08T02:05:27;-1.80;99.90
54576;DHT22;40472;53.486;14.542;2022-12-08T02:07:54;-1.90;99.90
54576;DHT22;40472;53.486;14.542;2022-12-08T02:10:23;-1.90;99.90
54576;DHT22;40472;53.486;14.542;2022-12-08T02:12:50;-1.90;99.90
54576;DHT22;40472;53.486;14.542;2022-12-08T02:15:20;-2.00;99.90
54576;DHT22;40472;53.486;14.542;2022-12-08T02:18:00;-2.00;99.90
54576;DHT22;40472;53.486;14.542;2022-12-08T02:23:17;-1.80;99.90
54576;DHT22;40472;53.486;14.542;2022-12-08T02:26:21;-1.80;99.90
54576;DHT22;40472;53.486;14.542;2022-12-08T02:31:51;-1.80;99.90
54576;DHT22;40472;53.486;14.542;2022-12-08T02:34:43;-1.80;99.90
54576;DHT22;40472;53.486;14.542;2022-12-08T02:37:17;-1.80;99.90
54576;DHT22;40472;53.486;14.542;2022-12-08T02:40:30;-1.80;99.90
54576;DHT22;40472;53.486;14.542;2022-12-08T02:43:44;-1.80;99.90
54576;DHT22;40472;53.486;14.542;2022-12-08T02:45:58;-1.80;99.90
54576;DHT22;40472;53.486;14.542;2022-12-08T02:48:28;-1.80;99.90
54576;DHT22;40472;53.486;14.542;2022-12-08T02:50:54;-1.80;99.90
54576;DHT22;40472;53.486;14.542;2022-12-08T02:53:20;-1.80;99.90
54576;DHT22;40472;53.486;14.542;2022-12-08T02:59:13;-1.80;99.90
54576;DHT22;40472;53.486;14.542;2022-12-08T03:07:07;-1.80;99.90
54576;DHT22;40472;53.486;14.542;2022-12-08T03:09:44;-1.70;99.90
54576;DHT22;40472;53.486;14.542;2022-12-08T03:15:08;-1.60;99.90
54576;DHT22;40472;53.486;14.542;2022-12-08T03:17:35;-1.60;99.90
54576;DHT22;40472;53.486;14.542;2022-12-08T03:20:06;-1.60;99.90
54576;DHT22;40472;53.486;14.542;2022-12-08T03:22:33;-1.60;99.90
54576;DHT22;40472;53.486;14.542;2022-12-08T03:24:59;-1.50;99.90
54576;DHT22;40472;53.486;14.542;2022-12-08T03:27:29;-1.50;99.90
54576;DHT22;40472;53.486;14.542;2022-12-08T03:29:57;-1.40;99.90
54576;DHT22;40472;53.486;14.542;2022-12-08T03:32:28;-1.40;99.90
54576;DHT22;40472;53.486;14.542;2022-12-08T03:34:55;-1.40;99.90
54576;DHT22;40472;53.486;14.542;2022-12-08T03:37:26;-1.40;99.90
54576;DHT22;40472;53.486;14.542;2022-12-08T03:39:52;-1.40;99.90
54576;DHT22;40472;53.486;14.542;2022-12-08T03:42:20;-1.40;99.90
54576;DHT22;40472;53.486;14.542;2022-12-08T03:44:46;-1.40;99.90
54576;DHT22;40472;53.486;14.542;2022-12-08T03:47:12;-1.30;99.90
54576;DHT22;40472;53.486;14.542;2022-12-08T03:49:38;-1.30;99.90
54576;DHT22;40472;53.486;14.542;2022-12-08T03:52:06;-1.30;99.90
54576;DHT22;40472;53.486;14.542;2022-12-08T03:54:31;-1.20;99.90
54576;DHT22;40472;53.486;14.542;2022-12-08T03:56:57;-1.30;99.90
54576;DHT22;40472;53.486;14.542;2022-12-08T03:59:23;-1.30;99.90
54576;DHT22;40472;53.486;14.542;2022-12-08T04:01:49;-1.30;99.90
54576;DHT22;40472;53.486;14.542;2022-12-08T04:04:15;-1.30;99.90
54576;DHT22;40472;53.486;14.542;2022-12-08T04:06:43;-1.40;99.90
54576;DHT22;40472;53.486;14.542;2022-12-08T04:09:09;-1.30;99.90
54576;DHT22;40472;53.486;14.542;2022-12-08T04:11:34;-1.30;99.90
54576;DHT22;40472;53.486;14.542;2022-12-08T04:14:00;-1.30;99.90
54576;DHT22;40472;53.486;14.542;2022-12-08T04:16:26;-1.20;99.90
54576;DHT22;40472;53.486;14.542;2022-12-08T04:18:52;-1.20;99.90
54576;DHT22;40472;53.486;14.542;2022-12-08T04:21:19;-1.20;99.90
54576;DHT22;40472;53.486;14.542;2022-12-08T04:23:45;-1.20;99.90
54576;DHT22;40472;53.486;14.542;2022-12-08T04:26:12;-1.10;99.90
54576;DHT22;40472;53.486;14.542;2022-12-08T04:28:38;-1.10;99.90
54576;DHT22;40472;53.486;14.542;2022-12-08T04:31:04;-1.20;99.90
54576;DHT22;40472;53.486;14.542;2022-12-08T04:33:30;-1.20;99.90
54576;DHT22;40472;53.486;14.542;2022-12-08T04:35:56;-1.20;99.90
54576;DHT22;40472;53.486;14.542;2022-12-08T04:38:22;-1.10;99.90
54576;DHT22;40472;53.486;14.542;2022-12-08T04:40:48;-1.20;99.90
54576;DHT22;40472;53.486;14.542;2022-12-08T04:43:14;-1.10;99.90
54576;DHT22;40472;53.486;14.542;2022-12-08T04:45:40;-1.10;99.90
54576;DHT22;40472;53.486;14.542;2022-12-08T04:48:09;-1.20;99.90
54576;DHT22;40472;53.486;14.542;2022-12-08T04:50:43;-1.20;99.90
54576;DHT22;40472;53.486;14.542;2022-12-08T04:53:11;-1.10;99.90
54576;DHT22;40472;53.486;14.542;2022-12-08T04:55:41;-1.10;99.90
54576;DHT22;40472;53.486;14.542;2022-12-08T04:58:11;-1.20;99.90
54576;DHT22;40472;53.486;14.542;2022-12-08T05:00:38;-1.10;99.90
54576;DHT22;40472;53.486;14.542;2022-12-08T05:03:04;-1.10;99.90
54576;DHT22;40472;53.486;14.542;2022-12-08T05:05:29;-1.00;99.90
54576;DHT22;40472;53.486;14.542;2022-12-08T05:07:55;-1.00;99.90
54576;DHT22;40472;53.486;14.542;2022-12-08T05:10:21;-1.10;99.90
54576;DHT22;40472;53.486;14.542;2022-12-08T05:12:47;-1.10;99.90
54576;DHT22;40472;53.486;14.542;2022-12-08T05:15:22;-1.10;99.90
54576;DHT22;40472;53.486;14.542;2022-12-08T05:17:49;-1.30;99.90
54576;DHT22;40472;53.486;14.542;2022-12-08T05:20:15;-1.30;99.90
54576;DHT22;40472;53.486;14.542;2022-12-08T05:22:41;-1.20;99.90
54576;DHT22;40472;53.486;14.542;2022-12-08T05:25:07;-1.10;99.90
54576;DHT22;40472;53.486;14.542;2022-12-08T05:27:34;-1.10;99.90
54576;DHT22;40472;53.486;14.542;2022-12-08T05:29:59;-1.10;99.90
54576;DHT22;40472;53.486;14.542;2022-12-08T05:32:25;-1.10;99.90
54576;DHT22;40472;53.486;14.542;2022-12-08T05:34:51;-1.00;99.90
54576;DHT22;40472;53.486;14.542;2022-12-08T05:37:17;-1.00;99.90
54576;DHT22;40472;53.486;14.542;2022-12-08T05:39:42;-1.00;99.90
54576;DHT22;40472;53.486;14.542;2022-12-08T05:42:08;-1.00;99.90
54576;DHT22;40472;53.486;14.542;2022-12-08T05:44:34;-0.90;99.90
54576;DHT22;40472;53.486;14.542;2022-12-08T05:46:59;-0.90;99.90
54576;DHT22;40472;53.486;14.542;2022-12-08T05:49:25;-0.90;99.90
54576;DHT22;40472;53.486;14.542;2022-12-08T05:51:51;-1.00;99.90
54576;DHT22;40472;53.486;14.542;2022-12-08T05:54:17;-1.00;99.90
54576;DHT22;40472;53.486;14.542;2022-12-08T05:56:45;-1.00;99.90
54576;DHT22;40472;53.486;14.542;2022-12-08T05:59:11;-0.90;99.90
54576;DHT22;40472;53.486;14.542;2022-12-08T06:01:36;-0.80;99.90
54576;DHT22;40472;53.486;14.542;2022-12-08T06:04:03;-0.90;99.90
54576;DHT22;40472;53.486;14.542;2022-12-08T06:06:32;-1.00;99.90
54576;DHT22;40472;53.486;14.542;2022-12-08T06:08:58;-1.00;99.90
54576;DHT22;40472;53.486;14.542;2022-12-08T06:11:28;-1.00;99.90
54576;DHT22;40472;53.486;14.542;2022-12-08T06:13:54;-0.90;99.90
54576;DHT22;40472;53.486;14.542;2022-12-08T06:16:21;-0.90;99.90
54576;DHT22;40472;53.486;14.542;2022-12-08T06:18:47;-1.00;99.90
54576;DHT22;40472;53.486;14.542;2022-12-08T06:21:14;-0.90;99.90
54576;DHT22;40472;53.486;14.542;2022-12-08T06:23:40;-0.90;99.90
54576;DHT22;40472;53.486;14.542;2022-12-08T06:26:13;-0.80;99.90
54576;DHT22;40472;53.486;14.542;2022-12-08T06:28:40;-0.90;99.90
54576;DHT22;40472;53.486;14.542;2022-12-08T06:31:29;-0.90;99.90
54576;DHT22;40472;53.486;14.542;2022-12-08T06:33:54;-0.90;99.90
54576;DHT22;40472;53.486;14.542;2022-12-08T06:36:23;-0.80;99.90
54576;DHT22;40472;53.486;14.542;2022-12-08T06:38:49;-0.80;99.90
54576;DHT22;40472;53.486;14.542;2022-12-08T06:41:15;-0.70;99.90
54576;DHT22;40472;53.486;14.542;2022-12-08T06:43:41;-0.60;99.90
54576;DHT22;40472;53.486;14.542;2022-12-08T06:46:09;-0.70;99.90
54576;DHT22;40472;53.486;14.542;2022-12-08T06:48:35;-0.70;99.90
54576;DHT22;40472;53.486;14.542;2022-12-08T06:51:16;-0.70;99.90
54576;DHT22;40472;53.486;14.542;2022-12-08T06:53:43;-0.70;99.90
54576;DHT22;40472;53.486;14.542;2022-12-08T06:56:10;-0.70;99.90
54576;DHT22;40472;53.486;14.542;2022-12-08T06:58:36;-0.70;99.90
54576;DHT22;40472;53.486;14.542;2022-12-08T07:01:07;-0.70;99.90
54576;DHT22;40472;53.486;14.542;2022-12-08T07:03:34;-0.80;99.90
54576;DHT22;40472;53.486;14.542;2022-12-08T07:06:00;-0.80;99.90
54576;DHT22;40472;53.486;14.542;2022-12-08T07:08:26;-0.70;99.90
54576;DHT22;40472;53.486;14.542;2022-12-08T07:10:52;-0.80;99.90
54576;DHT22;40472;53.486;14.542;2022-12-08T07:13:18;-0.80;99.90
54576;DHT22;40472;53.486;14.542;2022-12-08T07:15:44;-0.80;99.90
54576;DHT22;40472;53.486;14.542;2022-12-08T07:18:11;-0.80;99.90
54576;DHT22;40472;53.486;14.542;2022-12-08T07:20:37;-0.80;99.90
54576;DHT22;40472;53.486;14.542;2022-12-08T07:23:02;-0.80;99.90
54576;DHT22;40472;53.486;14.542;2022-12-08T07:25:28;-0.80;99.90
54576;DHT22;40472;53.486;14.542;2022-12-08T07:27:54;-0.80;99.90
54576;DHT22;40472;53.486;14.542;2022-12-08T07:30:21;-0.80;99.90
54576;DHT22;40472;53.486;14.542;2022-12-08T07:32:47;-0.80;99.90
54576;DHT22;40472;53.486;14.542;2022-12-08T07:35:13;-0.80;99.90
54576;DHT22;40472;53.486;14.542;2022-12-08T07:37:38;-0.80;99.90
54576;DHT22;40472;53.486;14.542;2022-12-08T07:40:06;-0.80;99.90
54576;DHT22;40472;53.486;14.542;2022-12-08T07:42:33;-0.80;99.90
54576;DHT22;40472;53.486;14.542;2022-12-08T07:44:59;-0.80;99.90
54576;DHT22;40472;53.486;14.542;2022-12-08T07:47:25;-0.70;99.90
54576;DHT22;40472;53.486;14.542;2022-12-08T07:49:51;-0.70;99.90
54576;DHT22;40472;53.486;14.542;2022-12-08T07:52:16;-0.60;99.90
54576;DHT22;40472;53.486;14.542;2022-12-08T07:54:44;-0.60;99.90
54576;DHT22;40472;53.486;14.542;2022-12-08T07:57:11;-0.60;99.90
54576;DHT22;40472;53.486;14.542;2022-12-08T07:59:37;-0.60;99.90
54576;DHT22;40472;53.486;14.542;2022-12-08T08:02:03;-0.60;99.90
54576;DHT22;40472;53.486;14.542;2022-12-08T08:04:28;-0.50;99.90
54576;DHT22;40472;53.486;14.542;2022-12-08T08:06:54;-0.50;99.90
54576;DHT22;40472;53.486;14.542;2022-12-08T08:09:20;-0.50;99.90
54576;DHT22;40472;53.486;14.542;2022-12-08T08:11:46;-0.50;99.90
54576;DHT22;40472;53.486;14.542;2022-12-08T08:14:13;-0.50;99.90
54576;DHT22;40472;53.486;14.542;2022-12-08T08:16:39;-0.40;99.90
54576;DHT22;40472;53.486;14.542;2022-12-08T08:19:11;-0.30;99.90
54576;DHT22;40472;53.486;14.542;2022-12-08T08:21:37;-0.20;99.90
54576;DHT22;40472;53.486;14.542;2022-12-08T08:24:03;-0.10;99.90
54576;DHT22;40472;53.486;14.542;2022-12-08T08:26:29;-0.10;99.90
54576;DHT22;40472;53.486;14.542;2022-12-08T08:28:55;-0.10;99.90
54576;DHT22;40472;53.486;14.542;2022-12-08T08:31:26;0.10;99.90
54576;DHT22;40472;53.486;14.542;2022-12-08T08:33:52;0.10;99.90
54576;DHT22;40472;53.486;14.542;2022-12-08T08:36:18;0.20;99.90
54576;DHT22;40472;53.486;14.542;2022-12-08T08:38:47;0.20;99.90
54576;DHT22;40472;53.486;14.542;2022-12-08T08:41:13;0.30;99.90
54576;DHT22;40472;53.486;14.542;2022-12-08T08:43:39;0.30;99.90
54576;DHT22;40472;53.486;14.542;2022-12-08T08:46:05;0.40;99.90
54576;DHT22;40472;53.486;14.542;2022-12-08T08:48:31;0.40;99.90
54576;DHT22;40472;53.486;14.542;2022-12-08T08:50:58;0.30;99.90
54576;DHT22;40472;53.486;14.542;2022-12-08T08:53:32;0.50;99.90
54576;DHT22;40472;53.486;14.542;2022-12-08T08:55:58;0.60;99.90
54576;DHT22;40472;53.486;14.542;2022-12-08T08:58:24;0.60;99.90
54576;DHT22;40472;53.486;14.542;2022-12-08T09:00:50;0.60;99.90
54576;DHT22;40472;53.486;14.542;2022-12-08T09:03:15;0.60;99.90
54576;DHT22;40472;53.486;14.542;2022-12-08T09:05:43;0.70;99.90
54576;DHT22;40472;53.486;14.542;2022-12-08T09:08:10;0.60;99.90
54576;DHT22;40472;53.486;14.542;2022-12-08T09:10:36;0.60;99.90
54576;DHT22;40472;53.486;14.542;2022-12-08T09:13:01;0.70;99.90
54576;DHT22;40472;53.486;14.542;2022-12-08T09:15:27;0.70;99.90
54576;DHT22;40472;53.486;14.542;2022-12-08T09:17:55;0.70;99.90
54576;DHT22;40472;53.486;14.542;2022-12-08T09:20:21;0.70;99.90
54576;DHT22;40472;53.486;14.542;2022-12-08T09:22:47;0.70;99.90
54576;DHT22;40472;53.486;14.542;2022-12-08T09:25:12;0.70;99.90
54576;DHT22;40472;53.486;14.542;2022-12-08T09:27:38;0.70;99.90
54576;DHT22;40472;53.486;14.542;2022-12-08T09:30:22;0.70;99.90
54576;DHT22;40472;53.486;14.542;2022-12-08T09:32:48;0.70;99.90
54576;DHT22;40472;53.486;14.542;2022-12-08T09:35:14;0.70;99.90
54576;DHT22;40472;53.486;14.542;2022-12-08T09:37:40;0.70;99.90
54576;DHT22;40472;53.486;14.542;2022-12-08T09:40:06;0.70;99.90
54576;DHT22;40472;53.486;14.542;2022-12-08T09:43:01;0.70;99.90
54576;DHT22;40472;53.486;14.542;2022-12-08T09:45:35;0.70;99.90
54576;DHT22;40472;53.486;14.542;2022-12-08T09:48:06;0.80;99.90
54576;DHT22;40472;53.486;14.542;2022-12-08T09:50:55;0.80;99.90
54576;DHT22;40472;53.486;14.542;2022-12-08T09:53:26;0.80;99.90
54576;DHT22;40472;53.486;14.542;2022-12-08T09:55:55;0.80;99.90
54576;DHT22;40472;53.486;14.542;2022-12-08T10:01:18;0.90;99.90
54576;DHT22;40472;53.486;14.542;2022-12-08T10:03:45;1.00;99.90
54576;DHT22;40472;53.486;14.542;2022-12-08T10:06:34;1.00;99.90
54576;DHT22;40472;53.486;14.542;2022-12-08T10:15:21;1.00;99.90
54576;DHT22;40472;53.486;14.542;2022-12-08T10:17:52;1.00;99.90
54576;DHT22;40472;53.486;14.542;2022-12-08T10:20:28;1.00;99.90
54576;DHT22;40472;53.486;14.542;2022-12-08T10:23:20;1.00;99.90
54576;DHT22;40472;53.486;14.542;2022-12-08T10:26:10;1.00;99.90
54576;DHT22;40472;53.486;14.542;2022-12-08T10:28:36;1.00;99.90
54576;DHT22;40472;53.486;14.542;2022-12-08T10:31:02;1.10;99.90
54576;DHT22;40472;53.486;14.542;2022-12-08T10:33:31;1.10;99.90
54576;DHT22;40472;53.486;14.542;2022-12-08T10:36:03;1.10;99.90
54576;DHT22;40472;53.486;14.542;2022-12-08T10:38:36;1.10;99.90
54576;DHT22;40472;53.486;14.542;2022-12-08T10:43:42;1.10;99.90
54576;DHT22;40472;53.486;14.542;2022-12-08T10:46:22;1.10;99.90
54576;DHT22;40472;53.486;14.542;2022-12-08T10:49:09;1.10;99.90
54576;DHT22;40472;53.486;14.542;2022-12-08T10:51:41;1.10;99.90
54576;DHT22;40472;53.486;14.542;2022-12-08T10:54:41;1.00;99.90
54576;DHT22;40472;53.486;14.542;2022-12-08T10:57:18;1.10;99.90
54576;DHT22;40472;53.486;14.542;2022-12-08T10:59:44;1.10;99.90
54576;DHT22;40472;53.486;14.542;2022-12-08T11:02:18;1.00;99.90
54576;DHT22;40472;53.486;14.542;2022-12-08T11:04:45;1.00;99.90
54576;DHT22;40472;53.486;14.542;2022-12-08T11:07:18;1.00;99.90
54576;DHT22;40472;53.486;14.542;2022-12-08T11:09:46;1.10;99.90
54576;DHT22;40472;53.486;14.542;2022-12-08T11:12:16;1.10;99.90
54576;DHT22;40472;53.486;14.542;2022-12-08T11:17:11;1.10;99.90
54576;DHT22;40472;53.486;14.542;2022-12-08T11:19:53;1.10;99.90
54576;DHT22;40472;53.486;14.542;2022-12-08T11:22:38;1.00;99.90
54576;DHT22;40472;53.486;14.542;2022-12-08T11:25:11;1.00;99.90
54576;DHT22;40472;53.486;14.542;2022-12-08T11:27:41;1.00;99.90
54576;DHT22;40472;53.486;14.542;2022-12-08T11:30:16;1.00;99.90
54576;DHT22;40472;53.486;14.542;2022-12-08T11:32:47;1.00;99.90
54576;DHT22;40472;53.486;14.542;2022-12-08T11:37:45;1.00;99.90
54576;DHT22;40472;53.486;14.542;2022-12-08T11:40:22;1.00;99.90
54576;DHT22;40472;53.486;14.542;2022-12-08T11:45:26;1.00;99.90
54576;DHT22;40472;53.486;14.542;2022-12-08T11:50:46;1.00;99.90
54576;DHT22;40472;53.486;14.542;2022-12-08T11:53:28;1.10;99.90
54576;DHT22;40472;53.486;14.542;2022-12-08T11:56:02;1.10;99.90
54576;DHT22;40472;53.486;14.542;2022-12-08T11:58:40;1.00;99.90
54576;DHT22;40472;53.486;14.542;2022-12-08T12:01:20;1.00;99.90
54576;DHT22;40472;53.486;14.542;2022-12-08T12:04:23;1.10;99.90
54576;DHT22;40472;53.486;14.542;2022-12-08T12:07:16;1.10;99.90
54576;DHT22;40472;53.486;14.542;2022-12-08T12:13:02;1.10;99.90
54576;DHT22;40472;53.486;14.542;2022-12-08T12:15:54;1.00;99.90
54576;DHT22;40472;53.486;14.542;2022-12-08T12:21:01;1.10;99.90
54576;DHT22;40472;53.486;14.542;2022-12-08T12:23:51;1.10;99.90
54576;DHT22;40472;53.486;14.542;2022-12-08T12:26:30;1.00;99.90
54576;DHT22;40472;53.486;14.542;2022-12-08T12:31:34;1.00;99.90
54576;DHT22;40472;53.486;14.542;2022-12-08T12:34:16;1.00;99.90
54576;DHT22;40472;53.486;14.542;2022-12-08T12:39:14;1.00;99.90
54576;DHT22;40472;53.486;14.542;2022-12-08T12:41:51;1.00;99.90
54576;DHT22;40472;53.486;14.542;2022-12-08T12:59:45;1.00;99.90
54576;DHT22;40472;53.486;14.542;2022-12-08T13:02:26;1.10;99.90
54576;DHT22;40472;53.486;14.542;2022-12-08T13:10:38;1.00;99.90
54576;DHT22;40472;53.486;14.542;2022-12-08T13:13:06;1.00;99.90
54576;DHT22;40472;53.486;14.542;2022-12-08T13:15:47;1.00;99.90
54576;DHT22;40472;53.486;14.542;2022-12-08T13:26:21;1.00;99.90
54576;DHT22;40472;53.486;14.542;2022-12-08T13:34:14;1.00;99.90
54576;DHT22;40472;53.486;14.542;2022-12-08T13:37:05;1.00;99.90
54576;DHT22;40472;53.486;14.542;2022-12-08T13:44:54;1.00;99.90
54576;DHT22;40472;53.486;14.542;2022-12-08T13:47:27;1.00;99.90
54576;DHT22;40472;53.486;14.542;2022-12-08T13:52:34;1.00;99.90
54576;DHT22;40472;53.486;14.542;2022-12-08T13:55:02;0.90;99.90
54576;DHT22;40472;53.486;14.542;2022-12-08T13:57:31;1.00;99.90
54576;DHT22;40472;53.486;14.542;2022-12-08T14:00:13;1.00;99.90
54576;DHT22;40472;53.486;14.542;2022-12-08T14:02:42;1.00;99.90
54576;DHT22;40472;53.486;14.542;2022-12-08T14:05:11;1.00;99.90
54576;DHT22;40472;53.486;14.542;2022-12-08T14:07:40;1.00;99.90
54576;DHT22;40472;53.486;14.542;2022-12-08T14:10:12;0.90;99.90
54576;DHT22;40472;53.486;14.542;2022-12-08T14:12:43;0.80;99.90
54576;DHT22;40472;53.486;14.542;2022-12-08T14:15:12;0.70;99.90
54576;DHT22;40472;53.486;14.542;2022-12-08T14:17:54;0.70;99.90
54576;DHT22;40472;53.486;14.542;2022-12-08T14:20:24;0.70;99.90
54576;DHT22;40472;53.486;14.542;2022-12-08T14:22:51;0.80;99.90
54576;DHT22;40472;53.486;14.542;2022-12-08T14:25:17;0.80;99.90
54576;DHT22;40472;53.486;14.542;2022-12-08T14:27:44;0.80;99.90
54576;DHT22;40472;53.486;14.542;2022-12-08T14:30:20;0.90;99.90
54576;DHT22;40472;53.486;14.542;2022-12-08T14:32:54;0.80;99.90
54576;DHT22;40472;53.486;14.542;2022-12-08T14:35:28;0.80;99.90
54576;DHT22;40472;53.486;14.542;2022-12-08T14:37:59;0.80;99.90
54576;DHT22;40472;53.486;14.542;2022-12-08T14:40:39;0.80;99.90
54576;DHT22;40472;53.486;14.542;2022-12-08T14:43:16;0.90;99.90
54576;DHT22;40472;53.486;14.542;2022-12-08T14:45:47;0.70;99.90
54576;DHT22;40472;53.486;14.542;2022-12-08T14:56:35;0.70;99.90
54576;DHT22;40472;53.486;14.542;2022-12-08T14:59:12;0.70;99.90
54576;DHT22;40472;53.486;14.542;2022-12-08T15:01:40;0.70;99.90
54576;DHT22;40472;53.486;14.542;2022-12-08T15:04:13;0.80;99.90
54576;DHT22;40472;53.486;14.542;2022-12-08T15:07:04;0.80;99.90
54576;DHT22;40472;53.486;14.542;2022-12-08T15:09:36;0.80;99.90
54576;DHT22;40472;53.486;14.542;2022-12-08T15:14:54;0.80;99.90
54576;DHT22;40472;53.486;14.542;2022-12-08T15:20:47;0.70;99.90
54576;DHT22;40472;53.486;14.542;2022-12-08T15:26:03;0.60;99.90
54576;DHT22;40472;53.486;14.542;2022-12-08T15:28:29;0.60;99.90
54576;DHT22;40472;53.486;14.542;2022-12-08T15:30:55;0.60;99.90
54576;DHT22;40472;53.486;14.542;2022-12-08T15:33:22;0.60;99.90
54576;DHT22;40472;53.486;14.542;2022-12-08T15:35:49;0.70;99.90
54576;DHT22;40472;53.486;14.542;2022-12-08T15:38:26;0.70;99.90
54576;DHT22;40472;53.486;14.542;2022-12-08T15:40:53;0.70;99.90
54576;DHT22;40472;53.486;14.542;2022-12-08T15:43:20;0.70;99.90
54576;DHT22;40472;53.486;14.542;2022-12-08T15:45:46;0.70;99.90
54576;DHT22;40472;53.486;14.542;2022-12-08T15:48:21;0.70;99.90
54576;DHT22;40472;53.486;14.542;2022-12-08T15:50:47;0.80;99.90
54576;DHT22;40472;53.486;14.542;2022-12-08T15:53:14;0.70;99.90
54576;DHT22;40472;53.486;14.542;2022-12-08T15:55:40;0.60;99.90
54576;DHT22;40472;53.486;14.542;2022-12-08T15:58:09;0.60;99.90
54576;DHT22;40472;53.486;14.542;2022-12-08T16:00:36;0.60;99.90
54576;DHT22;40472;53.486;14.542;2022-12-08T16:03:03;0.60;99.90
54576;DHT22;40472;53.486;14.542;2022-12-08T16:05:30;0.60;99.90
54576;DHT22;40472;53.486;14.542;2022-12-08T16:07:56;0.60;99.90
54576;DHT22;40472;53.486;14.542;2022-12-08T16:10:26;0.60;99.90
54576;DHT22;40472;53.486;14.542;2022-12-08T16:12:52;0.60;99.90
54576;DHT22;40472;53.486;14.542;2022-12-08T16:15:41;0.60;99.90
54576;DHT22;40472;53.486;14.542;2022-12-08T16:18:20;0.70;99.90
54576;DHT22;40472;53.486;14.542;2022-12-08T16:20:48;0.60;99.90
54576;DHT22;40472;53.486;14.542;2022-12-08T16:23:14;0.60;99.90
54576;DHT22;40472;53.486;14.542;2022-12-08T16:25:41;0.60;99.90
54576;DHT22;40472;53.486;14.542;2022-12-08T16:28:08;0.60;99.90
54576;DHT22;40472;53.486;14.542;2022-12-08T16:30:34;0.60;99.90
54576;DHT22;40472;53.486;14.542;2022-12-08T16:33:01;0.60;99.90
54576;DHT22;40472;53.486;14.542;2022-12-08T16:35:27;0.60;99.90
54576;DHT22;40472;53.486;14.542;2022-12-08T16:37:52;0.60;99.90
54576;DHT22;40472;53.486;14.542;2022-12-08T16:40:18;0.60;99.90
54576;DHT22;40472;53.486;14.542;2022-12-08T16:42:44;0.70;99.90
54576;DHT22;40472;53.486;14.542;2022-12-08T16:45:16;0.70;99.90
54576;DHT22;40472;53.486;14.542;2022-12-08T16:47:47;0.70;99.90
54576;DHT22;40472;53.486;14.542;2022-12-08T16:50:16;0.80;99.90
54576;DHT22;40472;53.486;14.542;2022-12-08T16:52:43;0.80;99.90
54576;DHT22;40472;53.486;14.542;2022-12-08T16:55:15;0.80;99.90
54576;DHT22;40472;53.486;14.542;2022-12-08T16:57:42;0.70;99.90
54576;DHT22;40472;53.486;14.542;2022-12-08T17:00:12;0.70;99.90
54576;DHT22;40472;53.486;14.542;2022-12-08T17:02:40;0.60;99.90
54576;DHT22;40472;53.486;14.542;2022-12-08T17:05:07;0.70;99.90
54576;DHT22;40472;53.486;14.542;2022-12-08T17:07:34;0.70;99.90
54576;DHT22;40472;53.486;14.542;2022-12-08T17:10:06;0.80;99.90
54576;DHT22;40472;53.486;14.542;2022-12-08T17:13:04;0.70;99.90
54576;DHT22;40472;53.486;14.542;2022-12-08T17:15:30;0.70;99.90
54576;DHT22;40472;53.486;14.542;2022-12-08T17:17:58;0.70;99.90
54576;DHT22;40472;53.486;14.542;2022-12-08T17:20:26;0.70;99.90
54576;DHT22;40472;53.486;14.542;2022-12-08T17:22:53;0.70;99.90
54576;DHT22;40472;53.486;14.542;2022-12-08T17:25:19;0.60;99.90
54576;DHT22;40472;53.486;14.542;2022-12-08T17:27:45;0.70;99.90
54576;DHT22;40472;53.486;14.542;2022-12-08T17:30:12;0.60;99.90
54576;DHT22;40472;53.486;14.542;2022-12-08T17:32:40;0.70;99.90
54576;DHT22;40472;53.486;14.542;2022-12-08T17:35:06;0.70;99.90
54576;DHT22;40472;53.486;14.542;2022-12-08T17:37:32;0.60;99.90